Etusivu
METAR-TAF:

METAR-TAF

Lentoasemat :

Salak

Maroua, Kamerun

Leveyspiiri: 10-27N, Pituuspiiri: 014-15E, korkeus merenpinnasta: 423 m

Tämänhetkinen sää

Tämä raportti tehtiin 20 minuuttia sitten, kello 10.00 UTC
Tuuli 10 kn lounaasta, vaihdellen etelän ja lännen/lounaan välillä
Lämpötila 37°C
Kosteus 42%
Ilmanpaine 1012 hPa
Näkyvyys 10 km tai enemmän
Muutamia pilviä 4500 ft:n korkeudessa

METAR: FKKL 291000Z 22010KT 180V240 9999 FEW045 37/22 Q1012

Aika: 11:20 (10:20 UTC)

Sääennuste

Tämä raportti tehtiin 5 tuntia ja 20 minuuttia sitten, kello 05.00 UTC
Ennuste voimassa 29. päivästä klo 06 UTC - 29. päivään klo 18 UTC
Tuuli 8 kn lännestä
Näkyvyys 10 km tai enemmän
Muutamia pilviä 4000 ft:n korkeudessa

TAF: FKKL 290500Z 2906/2918 26008KT 9999 FEW040

Säähavainnot ja -ennusteet yli 4000 lentoasemalta (METAR- ja TAF-raportit).

Käytössä olevat sääasemat on merkitty karttaan keltaisilla ja punaisilla pisteillä.

Aseta hiiri pisteen päälle nähdäksesi sääaseman nimen.

Klikkaa sitten nähdäksesi säähavainnot ja -ennusteet.

Kartan vaihtaminen: klikkaa mustalla rastilla varustettuja vihreitä pisteitä, niin voit zoomata sisään; viivalla varustettua vihreää pistettä, niin voit zoomata ulos tai vihreitä nuolia, niin pääset viereisille kartoille.


METAR-TAF: